createdAt,value
2023-04-24T00:00:41.891Z,99751.53
2023-04-24T00:03:29.005Z,99750.69
2023-04-24T00:06:14.741Z,99747.72
2023-04-24T00:09:01.822Z,99739.81
2023-04-24T00:11:47.317Z,99739.81
2023-04-24T00:14:32.667Z,99727.56
2023-04-24T00:17:20.860Z,99729.41
2023-04-24T00:20:07.813Z,99720.53
2023-04-24T00:22:53.176Z,99716.56
2023-04-24T00:25:39.108Z,99722.34
2023-04-24T00:28:24.623Z,99721.84
2023-04-24T00:31:10.163Z,99731.66
2023-04-24T00:33:55.820Z,99722.44
2023-04-24T00:36:41.492Z,99706.25
2023-04-24T00:39:27.370Z,99702.53
2023-04-24T00:42:12.927Z,99717.63
2023-04-24T00:44:58.702Z,99707.69
2023-04-24T00:47:46.373Z,99700.72
2023-04-24T00:50:32.189Z,99698.09
2023-04-24T00:53:17.479Z,99707.81
2023-04-24T00:56:03.652Z,99706.97
2023-04-24T00:58:49.243Z,99711.75
2023-04-24T01:01:35.662Z,99701.63
2023-04-24T01:04:21.400Z,99700.75
2023-04-24T01:07:11.615Z,99706.03
2023-04-24T01:09:57.283Z,99693.47
2023-04-24T01:12:43.097Z,99693.59
2023-04-24T01:15:28.321Z,99693.34
2023-04-24T01:18:14.935Z,99698.47
2023-04-24T01:21:03.694Z,99706.00
2023-04-24T01:23:49.324Z,99709.34
2023-04-24T01:26:37.661Z,99693.16
2023-04-24T01:29:23.312Z,99694.59
2023-04-24T01:32:08.600Z,99694.91
2023-04-24T01:34:53.986Z,99698.97
2023-04-24T01:37:39.740Z,99696.97
2023-04-24T01:40:25.179Z,99704.75
2023-04-24T01:43:10.676Z,99701.84
2023-04-24T01:45:56.020Z,99698.41
2023-04-24T01:48:42.234Z,99707.47
2023-04-24T01:51:27.967Z,99708.03
2023-04-24T01:54:13.937Z,99709.22
2023-04-24T01:56:59.237Z,99696.84
2023-04-24T01:59:44.981Z,99685.06
2023-04-24T02:02:31.020Z,99676.81
2023-04-24T02:05:16.776Z,99678.78
2023-04-24T02:08:02.447Z,99685.75
2023-04-24T02:10:47.900Z,99688.81
2023-04-24T02:13:33.347Z,99679.78
2023-04-24T02:16:18.866Z,99680.53
2023-04-24T02:19:04.592Z,99685.03
2023-04-24T02:21:50.127Z,99677.28
2023-04-24T02:24:35.541Z,99692.13
2023-04-24T02:27:21.127Z,99687.78
2023-04-24T02:30:07.179Z,99695.25
2023-04-24T02:32:52.624Z,99689.41
2023-04-24T02:35:38.289Z,99686.88
2023-04-24T02:38:23.732Z,99686.28
2023-04-24T02:41:09.247Z,99688.38
2023-04-24T02:43:55.778Z,99692.16
2023-04-24T02:46:42.864Z,99696.72
2023-04-24T02:49:28.097Z,99685.47
2023-04-24T02:52:14.161Z,99689.66
2023-04-24T02:54:59.836Z,99692.81
2023-04-24T02:57:45.094Z,99700.09
2023-04-24T03:00:30.868Z,99704.25
2023-04-24T03:03:16.278Z,99711.63
2023-04-24T03:06:02.544Z,99689.78
2023-04-24T03:08:48.220Z,99701.97
2023-04-24T03:11:33.625Z,99702.91
2023-04-24T03:14:19.032Z,99706.28
2023-04-24T03:17:04.409Z,99704.59
2023-04-24T03:19:49.692Z,99708.94
2023-04-24T03:22:35.509Z,99704.78
2023-04-24T03:25:21.173Z,99702.47
2023-04-24T03:28:06.616Z,99702.88
2023-04-24T03:30:52.925Z,99700.78
2023-04-24T03:33:38.352Z,99701.41
2023-04-24T03:36:23.678Z,99701.41
2023-04-24T03:39:09.188Z,99692.59
2023-04-24T03:41:54.541Z,99698.22
2023-04-24T03:44:40.055Z,99691.47
2023-04-24T03:47:25.471Z,99705.09
2023-04-24T03:50:12.908Z,99704.69
2023-04-24T03:52:58.838Z,99705.28
2023-04-24T03:55:44.680Z,99693.63
2023-04-24T03:58:30.373Z,99706.63
2023-04-24T04:01:17.022Z,99706.72
2023-04-24T04:04:02.907Z,99701.16
2023-04-24T04:06:48.313Z,99703.28
2023-04-24T04:09:34.000Z,99700.66
2023-04-24T04:12:19.387Z,99686.81
2023-04-24T04:15:06.806Z,99687.03
2023-04-24T04:17:52.582Z,99685.31
2023-04-24T04:20:38.168Z,99686.56
2023-04-24T04:23:24.318Z,99690.25
2023-04-24T04:26:09.953Z,99689.53
2023-04-24T04:28:55.368Z,99692.78
2023-04-24T04:31:41.183Z,99691.81
2023-04-24T04:34:26.866Z,99692.66
2023-04-24T04:37:13.441Z,99691.63
2023-04-24T04:40:01.730Z,99690.38
2023-04-24T04:42:47.114Z,99681.78
2023-04-24T04:45:33.610Z,99681.56
2023-04-24T04:48:19.633Z,99692.91
2023-04-24T04:51:05.500Z,99695.41
2023-04-24T04:53:51.310Z,99691.97
2023-04-24T04:56:38.324Z,99704.03
2023-04-24T04:59:23.914Z,99709.09
2023-04-24T05:02:09.788Z,99706.97
2023-04-24T05:04:55.581Z,99703.44
2023-04-24T05:07:41.430Z,99714.25
2023-04-24T05:10:26.762Z,99712.50
2023-04-24T05:13:14.026Z,99722.19
2023-04-24T05:16:00.011Z,99711.47
2023-04-24T05:18:45.745Z,99716.00
2023-04-24T05:21:31.736Z,99720.00
2023-04-24T05:24:17.628Z,99721.47
2023-04-24T05:27:03.842Z,99725.03
2023-04-24T05:29:49.568Z,99729.69
2023-04-24T05:32:35.876Z,99725.31
2023-04-24T05:35:21.478Z,99732.84
2023-04-24T05:38:06.783Z,99726.25
2023-04-24T05:40:52.465Z,99730.81
2023-04-24T05:43:37.784Z,99734.03
2023-04-24T05:46:23.308Z,99741.00
2023-04-24T05:49:08.881Z,99733.13
2023-04-24T05:51:54.692Z,99730.03
2023-04-24T05:54:40.442Z,99733.13
2023-04-24T05:57:26.024Z,99736.19
2023-04-24T06:00:13.038Z,99737.13
2023-04-24T06:02:58.530Z,99733.56
2023-04-24T06:05:44.123Z,99728.66
2023-04-24T06:08:29.713Z,99727.69
2023-04-24T06:11:15.319Z,99719.16
2023-04-24T06:14:00.936Z,99728.91
2023-04-24T06:16:48.345Z,99721.69
2023-04-24T06:19:35.484Z,99730.75
2023-04-24T06:22:21.303Z,99738.53
2023-04-24T06:25:08.184Z,99740.75
2023-04-24T06:27:53.993Z,99727.53
2023-04-24T06:30:39.638Z,99728.78
2023-04-24T06:33:25.293Z,99733.19
2023-04-24T06:36:11.443Z,99720.03
2023-04-24T06:38:57.640Z,99725.31
2023-04-24T06:41:43.183Z,99727.69
2023-04-24T06:44:29.068Z,99717.59
2023-04-24T06:47:14.696Z,99714.94
2023-04-24T06:50:00.307Z,99711.69
2023-04-24T06:52:45.967Z,99725.59
2023-04-24T06:55:31.765Z,99723.66
2023-04-24T06:58:19.722Z,99722.88
2023-04-24T07:01:05.686Z,99724.84
2023-04-24T07:03:51.710Z,99711.47
2023-04-24T07:06:38.427Z,99713.06
2023-04-24T07:09:26.259Z,99722.22
2023-04-24T07:12:12.966Z,99720.94
2023-04-24T07:14:58.726Z,99714.94
2023-04-24T07:17:45.280Z,99722.75
2023-04-24T07:20:30.642Z,99726.66
2023-04-24T07:23:16.573Z,99727.03
2023-04-24T07:26:02.026Z,99710.66
2023-04-24T07:28:47.696Z,99729.47
2023-04-24T07:31:33.434Z,99722.53
2023-04-24T07:34:18.993Z,99713.03
2023-04-24T07:37:04.720Z,99719.84
2023-04-24T07:39:50.335Z,99718.75
2023-04-24T07:42:37.275Z,99712.34
2023-04-24T07:45:24.316Z,99718.78
2023-04-24T07:48:10.097Z,99715.78
2023-04-24T07:50:56.076Z,99727.69
2023-04-24T07:53:41.928Z,99730.91
2023-04-24T07:56:28.139Z,99730.19
2023-04-24T07:59:13.622Z,99725.50
2023-04-24T08:01:59.089Z,99737.28
2023-04-24T08:04:45.062Z,99742.41
2023-04-24T08:07:31.089Z,99752.06
2023-04-24T08:10:16.477Z,99752.22
2023-04-24T08:13:01.821Z,99744.31
2023-04-24T08:15:47.420Z,99738.50
2023-04-24T08:18:32.943Z,99732.78
2023-04-24T08:21:19.589Z,99738.25
2023-04-24T08:24:09.155Z,99758.63
2023-04-24T08:26:55.038Z,99754.44
2023-04-24T08:29:40.634Z,99765.03
2023-04-24T08:32:28.647Z,99751.94
2023-04-24T08:35:14.054Z,99749.28
2023-04-24T08:37:59.371Z,99749.28
2023-04-24T08:40:46.913Z,99758.94
2023-04-24T08:43:34.255Z,99758.75
2023-04-24T08:46:20.717Z,99763.97
2023-04-24T08:49:06.332Z,99755.34
2023-04-24T08:51:53.201Z,99768.00
2023-04-24T08:54:39.743Z,99768.31
2023-04-24T08:57:25.839Z,99776.56
2023-04-24T09:00:12.284Z,99761.09
2023-04-24T09:02:58.766Z,99776.69
2023-04-24T09:05:50.651Z,99778.88
2023-04-24T09:08:37.099Z,99777.34
2023-04-24T09:11:25.207Z,99778.66
2023-04-24T09:14:11.145Z,99775.97
2023-04-24T09:16:56.392Z,99779.91
2023-04-24T09:19:43.162Z,99780.75
2023-04-24T09:22:32.073Z,99784.63
2023-04-24T09:25:17.584Z,99782.53
2023-04-24T09:28:05.332Z,99795.75
2023-04-24T09:31:05.268Z,99783.78
2023-04-24T09:34:01.196Z,99800.88
2023-04-24T09:36:47.064Z,99771.63
2023-04-24T09:39:32.637Z,99769.09
2023-04-24T09:42:18.288Z,99786.72
2023-04-24T09:45:11.888Z,99772.22
2023-04-24T09:48:01.298Z,99787.47
2023-04-24T09:50:53.046Z,99782.56
2023-04-24T09:53:40.303Z,99790.78
2023-04-24T09:56:27.055Z,99791.47
2023-04-24T09:59:13.957Z,99796.09
2023-04-24T10:02:00.879Z,99789.28
2023-04-24T10:04:56.957Z,99789.28
2023-04-24T10:07:44.351Z,99786.22
2023-04-24T10:10:30.879Z,99790.47
2023-04-24T10:13:16.628Z,99798.13
2023-04-24T10:16:04.237Z,99795.84
2023-04-24T10:18:49.992Z,99809.75
2023-04-24T10:21:38.595Z,99826.44
2023-04-24T10:24:24.132Z,99795.38
2023-04-24T10:27:10.493Z,99787.41
2023-04-24T10:29:56.129Z,99787.97
2023-04-24T10:32:41.456Z,99799.84
2023-04-24T10:35:27.767Z,99793.66
2023-04-24T10:38:14.391Z,99796.72
2023-04-24T10:41:10.597Z,99792.31
2023-04-24T10:44:10.763Z,99775.75
2023-04-24T10:46:56.687Z,99781.75
2023-04-24T10:49:43.229Z,99794.53
2023-04-24T10:52:45.960Z,99783.16
2023-04-24T10:55:43.836Z,99790.91
2023-04-24T10:58:55.113Z,99807.63
2023-04-24T11:01:40.452Z,99800.38
2023-04-24T11:04:33.837Z,99785.88
2023-04-24T11:07:21.790Z,99770.25
2023-04-24T11:10:07.673Z,99779.72
2023-04-24T11:12:53.009Z,99775.88
2023-04-24T11:15:38.319Z,99775.03
2023-04-24T11:18:24.150Z,99781.16
2023-04-24T11:21:13.798Z,99766.00
2023-04-24T11:23:59.549Z,99746.09
2023-04-24T11:26:45.926Z,99776.41
2023-04-24T11:29:51.243Z,99784.53
2023-04-24T11:32:42.460Z,99774.53
2023-04-24T11:35:29.605Z,99785.19
2023-04-24T11:38:24.001Z,99788.78
2023-04-24T11:41:10.900Z,99803.59
2023-04-24T11:43:58.266Z,99790.16
2023-04-24T11:46:43.947Z,99800.03
2023-04-24T11:49:29.574Z,99802.81
2023-04-24T11:52:16.876Z,99777.09
2023-04-24T11:55:02.879Z,99799.25
2023-04-24T11:57:49.631Z,99800.31
2023-04-24T12:00:35.391Z,99818.53
2023-04-24T12:03:21.505Z,99816.38
2023-04-24T12:06:11.033Z,99810.66
2023-04-24T12:09:04.561Z,99813.91
2023-04-24T12:11:57.924Z,99814.44
2023-04-24T12:14:50.835Z,99817.25
2023-04-24T12:17:37.688Z,99809.25
2023-04-24T12:20:28.731Z,99814.84
2023-04-24T12:23:14.183Z,99817.94
2023-04-24T12:26:02.338Z,99814.84
2023-04-24T12:28:50.157Z,99806.81
2023-04-24T12:31:36.110Z,99811.25
2023-04-24T12:34:22.743Z,99814.00
2023-04-24T12:37:12.381Z,99812.56
2023-04-24T12:40:09.683Z,99809.09
2023-04-24T12:42:56.251Z,99804.09
2023-04-24T12:45:43.095Z,99810.94
2023-04-24T12:48:29.567Z,99817.72
2023-04-24T12:51:15.237Z,99817.25
2023-04-24T12:54:00.906Z,99811.28
2023-04-24T12:56:46.510Z,99813.06
2023-04-24T12:59:31.986Z,99812.75
2023-04-24T13:02:20.549Z,99811.50
2023-04-24T13:05:06.807Z,99816.03
2023-04-24T13:07:52.244Z,99827.38
2023-04-24T13:10:37.689Z,99822.91
2023-04-24T13:13:23.177Z,99809.78
2023-04-24T13:16:08.824Z,99812.91
2023-04-24T13:18:54.169Z,99813.16
2023-04-24T13:21:39.585Z,99820.19
2023-04-24T13:24:26.033Z,99815.91
2023-04-24T13:27:11.654Z,99816.53
2023-04-24T13:29:57.445Z,99808.88
2023-04-24T13:32:43.008Z,99820.41
2023-04-24T13:35:28.763Z,99817.78
2023-04-24T13:38:14.521Z,99808.47
2023-04-24T13:41:01.138Z,99807.44
2023-04-24T13:43:46.852Z,99804.25
2023-04-24T13:46:32.364Z,99810.38
2023-04-24T13:49:17.796Z,99798.16
2023-04-24T13:52:03.770Z,99810.66
2023-04-24T13:54:49.253Z,99803.53
2023-04-24T13:57:34.998Z,99803.94
2023-04-24T14:00:20.704Z,99793.84
2023-04-24T14:03:06.743Z,99793.22
2023-04-24T14:05:52.710Z,99796.44
2023-04-24T14:08:38.259Z,99788.31
2023-04-24T14:11:23.943Z,99792.19
2023-04-24T14:14:09.406Z,99795.06
2023-04-24T14:16:55.087Z,99808.63
2023-04-24T14:19:40.672Z,99794.94
2023-04-24T14:22:25.978Z,99808.72
2023-04-24T14:25:12.044Z,99809.25
2023-04-24T14:27:57.581Z,99815.16
2023-04-24T14:30:43.358Z,99826.56
2023-04-24T14:33:28.761Z,99805.38
2023-04-24T14:36:14.285Z,99794.53
2023-04-24T14:38:59.776Z,99801.75
2023-04-24T14:41:45.240Z,99808.66
2023-04-24T14:44:30.557Z,99819.38
2023-04-24T14:47:18.272Z,99827.38
2023-04-24T14:50:04.640Z,99833.22
2023-04-24T14:52:49.935Z,99826.56
2023-04-24T14:55:37.110Z,99837.56
2023-04-24T14:58:22.973Z,99829.81
2023-04-24T15:01:08.357Z,99856.66
2023-04-24T15:03:54.064Z,99850.38
2023-04-24T15:06:39.973Z,99851.38
2023-04-24T15:09:26.482Z,99858.28
2023-04-24T15:12:13.235Z,99866.25
2023-04-24T15:14:59.798Z,99869.44
2023-04-24T15:17:45.594Z,99881.78
2023-04-24T15:20:31.484Z,99868.66
2023-04-24T15:23:17.198Z,99882.41
2023-04-24T15:26:02.892Z,99869.22
2023-04-24T15:28:48.634Z,99888.59
2023-04-24T15:31:34.210Z,99916.53
2023-04-24T15:34:19.601Z,99900.97
2023-04-24T15:37:05.280Z,99905.38
2023-04-24T15:39:51.623Z,99904.53
2023-04-24T15:42:37.264Z,99907.25
2023-04-24T15:45:23.259Z,99903.69
2023-04-24T15:48:08.945Z,99928.03
2023-04-24T15:50:54.369Z,99921.41
2023-04-24T15:53:39.789Z,99937.81
2023-04-24T15:56:25.118Z,99996.31
2023-04-24T15:59:10.782Z,99958.13
2023-04-24T16:01:56.490Z,99966.09
2023-04-24T16:04:42.239Z,99957.66
2023-04-24T16:07:27.718Z,99978.56
2023-04-24T16:10:13.070Z,99963.81
2023-04-24T16:13:00.909Z,99991.00
2023-04-24T16:15:46.730Z,99984.50
2023-04-24T16:18:32.238Z,100002.88
2023-04-24T16:21:17.761Z,100011.13
2023-04-24T16:24:03.126Z,100014.78
2023-04-24T16:26:49.231Z,100007.56
2023-04-24T16:29:34.837Z,100017.41
2023-04-24T16:32:20.332Z,100028.44
2023-04-24T16:35:05.977Z,100028.88
2023-04-24T16:37:51.271Z,100039.00
2023-04-24T16:40:36.807Z,100043.63
2023-04-24T16:43:22.544Z,100043.22
2023-04-24T16:46:08.125Z,100047.66
2023-04-24T16:48:53.481Z,100054.03
2023-04-24T16:51:38.852Z,100061.34
2023-04-24T16:54:24.600Z,100055.06
2023-04-24T16:57:09.970Z,100064.53
2023-04-24T16:59:55.829Z,100065.28
2023-04-24T17:02:41.437Z,100064.63
2023-04-24T17:05:27.033Z,100066.00
2023-04-24T17:08:13.337Z,100063.28
2023-04-24T17:10:58.735Z,100071.31
2023-04-24T17:13:44.267Z,100068.88
2023-04-24T17:16:30.070Z,100077.25
2023-04-24T17:19:15.596Z,100073.34
2023-04-24T17:22:01.238Z,100080.50
2023-04-24T17:24:51.947Z,100087.91
2023-04-24T17:27:37.262Z,100091.97
2023-04-24T17:30:22.815Z,100086.00
2023-04-24T17:33:08.121Z,100090.47
2023-04-24T17:35:54.232Z,100085.22
2023-04-24T17:38:39.869Z,100091.22
2023-04-24T17:41:25.524Z,100088.19
2023-04-24T17:44:11.031Z,100087.50
2023-04-24T17:46:56.529Z,100097.06
2023-04-24T17:49:43.504Z,100093.78
2023-04-24T17:52:29.161Z,100096.66
2023-04-24T17:55:15.993Z,100105.59
2023-04-24T17:58:03.013Z,100086.94
2023-04-24T18:00:48.390Z,100104.59
2023-04-24T18:03:34.058Z,100101.22
2023-04-24T18:06:19.844Z,100097.75
2023-04-24T18:09:05.329Z,100115.97
2023-04-24T18:11:50.642Z,100107.97
2023-04-24T18:14:35.941Z,100120.22
2023-04-24T18:17:21.518Z,100114.03
2023-04-24T18:20:07.495Z,100106.94
2023-04-24T18:22:54.241Z,100107.69
2023-04-24T18:25:39.904Z,100105.50
2023-04-24T18:28:25.403Z,100105.25
2023-04-24T18:31:10.955Z,100114.72
2023-04-24T18:33:56.394Z,100126.13
2023-04-24T18:36:42.373Z,100130.44
2023-04-24T18:39:27.996Z,100128.31
2023-04-24T18:42:13.374Z,100133.41
2023-04-24T18:45:01.842Z,100139.72
2023-04-24T18:47:47.885Z,100136.34
2023-04-24T18:50:33.767Z,100142.34
2023-04-24T18:53:19.719Z,100141.59
2023-04-24T18:56:05.637Z,100139.88
2023-04-24T18:58:52.120Z,100152.34
2023-04-24T19:01:39.034Z,100159.41
2023-04-24T19:04:24.609Z,100158.63
2023-04-24T19:07:10.544Z,100159.50
2023-04-24T19:09:56.131Z,100162.22
2023-04-24T19:12:41.923Z,100163.53
2023-04-24T19:15:29.622Z,100157.53
2023-04-24T19:18:17.114Z,100170.97
2023-04-24T19:21:02.666Z,100170.81
2023-04-24T19:23:50.311Z,100176.16
2023-04-24T19:26:35.700Z,100176.22
2023-04-24T19:29:21.058Z,100171.41
2023-04-24T19:32:06.831Z,100180.03
2023-04-24T19:34:52.206Z,100180.88
2023-04-24T19:37:38.386Z,100176.22
2023-04-24T19:40:24.212Z,100184.41
2023-04-24T19:43:09.892Z,100182.53
2023-04-24T19:45:55.502Z,100182.72
2023-04-24T19:48:40.852Z,100195.50
2023-04-24T19:51:27.557Z,100187.78
2023-04-24T19:54:13.571Z,100186.88
2023-04-24T19:56:59.064Z,100191.03
2023-04-24T19:59:44.870Z,100191.34
2023-04-24T20:02:31.062Z,100195.50
2023-04-24T20:05:16.593Z,100193.03
2023-04-24T20:08:02.001Z,100188.97
2023-04-24T20:10:47.391Z,100195.66
2023-04-24T20:13:33.086Z,100188.81
2023-04-24T20:16:18.438Z,100192.25
2023-04-24T20:19:03.897Z,100185.25
2023-04-24T20:21:49.572Z,100193.34
2023-04-24T20:24:35.117Z,100197.59
2023-04-24T20:27:20.827Z,100188.81
2023-04-24T20:30:12.678Z,100191.69
2023-04-24T20:32:58.358Z,100184.59
2023-04-24T20:35:43.826Z,100182.88
2023-04-24T20:38:29.505Z,100191.81
2023-04-24T20:41:15.977Z,100178.34
2023-04-24T20:44:01.684Z,100179.91
2023-04-24T20:46:47.184Z,100189.81
2023-04-24T20:49:32.994Z,100191.50
2023-04-24T20:52:18.469Z,100187.72
2023-04-24T20:55:04.151Z,100189.97
2023-04-24T20:57:49.707Z,100194.72
2023-04-24T21:00:35.166Z,100190.91
2023-04-24T21:03:21.230Z,100183.28
2023-04-24T21:06:07.323Z,100187.28
2023-04-24T21:08:52.741Z,100186.44
2023-04-24T21:11:38.361Z,100188.28
2023-04-24T21:14:24.082Z,100182.19
2023-04-24T21:17:09.675Z,100181.59
2023-04-24T21:19:56.483Z,100183.91
2023-04-24T21:22:42.257Z,100180.56
2023-04-24T21:25:28.652Z,100193.94
2023-04-24T21:28:14.396Z,100176.50
2023-04-24T21:30:59.965Z,100178.38
2023-04-24T21:33:45.673Z,100180.91
2023-04-24T21:36:32.731Z,100184.38
2023-04-24T21:39:18.428Z,100180.75
2023-04-24T21:42:03.992Z,100180.97
2023-04-24T21:44:49.252Z,100188.06
2023-04-24T21:47:34.955Z,100189.78
2023-04-24T21:50:20.360Z,100189.59
2023-04-24T21:53:05.916Z,100180.22
2023-04-24T21:55:51.838Z,100187.16
2023-04-24T21:58:37.541Z,100184.38
2023-04-24T22:01:22.936Z,100178.59
2023-04-24T22:04:08.688Z,100177.38
2023-04-24T22:06:54.300Z,100176.59
2023-04-24T22:09:40.170Z,100174.84
2023-04-24T22:12:25.521Z,100170.84
2023-04-24T22:15:11.019Z,100176.56
2023-04-24T22:17:57.490Z,100165.66
2023-04-24T22:20:44.017Z,100171.97
2023-04-24T22:23:29.781Z,100163.28
2023-04-24T22:26:15.209Z,100179.66
2023-04-24T22:29:01.234Z,100175.13
2023-04-24T22:31:46.843Z,100159.38
2023-04-24T22:34:32.123Z,100164.75
2023-04-24T22:37:17.725Z,100180.53
2023-04-24T22:40:03.490Z,100170.28
2023-04-24T22:42:49.162Z,100171.69
2023-04-24T22:45:34.812Z,100169.22
2023-04-24T22:48:20.371Z,100177.91
2023-04-24T22:51:06.556Z,100181.47
2023-04-24T22:53:52.007Z,100176.06
2023-04-24T22:56:37.906Z,100176.56
2023-04-24T22:59:23.859Z,100173.38
2023-04-24T23:02:09.201Z,100169.69
2023-04-24T23:04:55.142Z,100178.38
2023-04-24T23:07:40.737Z,100168.84
2023-04-24T23:10:26.533Z,100162.84
2023-04-24T23:13:12.205Z,100179.06
2023-04-24T23:15:57.772Z,100172.91
2023-04-24T23:18:43.187Z,100172.47
2023-04-24T23:21:28.768Z,100175.16
2023-04-24T23:24:14.352Z,100189.25
2023-04-24T23:27:01.713Z,100179.47
2023-04-24T23:29:46.997Z,100184.31
2023-04-24T23:32:32.638Z,100176.63
2023-04-24T23:35:17.883Z,100170.78
2023-04-24T23:38:03.529Z,100176.09
2023-04-24T23:40:51.822Z,100181.16
2023-04-24T23:43:37.425Z,100175.31
2023-04-24T23:46:22.937Z,100178.91
2023-04-24T23:49:09.051Z,100174.94
2023-04-24T23:51:54.876Z,100178.13
2023-04-24T23:54:40.209Z,100177.06
2023-04-24T23:57:25.687Z,100175.38
